createdAt,value
2019-05-19T00:00:13.045Z,1000.54
2019-05-19T00:01:13.056Z,1000.54
2019-05-19T00:02:13.056Z,1000.52
2019-05-19T00:03:13.079Z,1000.49
2019-05-19T00:04:13.489Z,1000.56
2019-05-19T00:05:13.103Z,1000.51
2019-05-19T00:06:13.112Z,1000.49
2019-05-19T00:07:13.123Z,1000.51
2019-05-19T00:08:13.163Z,1000.53
2019-05-19T00:09:16.388Z,1000.55
2019-05-19T00:10:13.174Z,1000.56
2019-05-19T00:11:13.186Z,1000.55
2019-05-19T00:12:13.237Z,1000.56
2019-05-19T00:13:13.269Z,1000.56
2019-05-19T00:14:13.291Z,1000.53
2019-05-19T00:15:13.242Z,1000.57
2019-05-19T00:16:13.257Z,1000.55
2019-05-19T00:17:13.297Z,1000.52
2019-05-19T00:18:13.285Z,1000.52
2019-05-19T00:19:25.744Z,1000.49
2019-05-19T00:20:13.330Z,1000.50
2019-05-19T00:21:13.338Z,1000.51
2019-05-19T00:22:13.379Z,1000.51
2019-05-19T00:23:13.358Z,1000.53
2019-05-19T00:24:13.383Z,1000.56
2019-05-19T00:25:13.738Z,1000.55
2019-05-19T00:26:13.401Z,1000.58
2019-05-19T00:27:13.427Z,1000.55
2019-05-19T00:29:13.446Z,1000.57
2019-05-19T00:30:13.455Z,1000.53
2019-05-19T00:31:13.471Z,1000.53
2019-05-19T00:32:13.492Z,1000.55
2019-05-19T00:33:13.501Z,1000.54
2019-05-19T00:34:13.532Z,1000.53
2019-05-19T00:35:13.531Z,1000.53
2019-05-19T00:36:13.545Z,1000.49
2019-05-19T00:37:13.565Z,1000.55
2019-05-19T00:38:13.574Z,1000.51
2019-05-19T00:39:13.595Z,1000.47
2019-05-19T00:40:13.603Z,1000.52
2019-05-19T00:41:13.617Z,1000.49
2019-05-19T00:42:13.630Z,1000.47
2019-05-19T00:43:13.650Z,1000.46
2019-05-19T00:44:13.668Z,1000.47
2019-05-19T00:45:13.683Z,1000.45
2019-05-19T00:46:13.699Z,1000.42
2019-05-19T00:47:13.702Z,1000.45
2019-05-19T00:48:13.725Z,1000.43
2019-05-19T00:49:13.735Z,1000.43
2019-05-19T00:50:13.770Z,1000.41
2019-05-19T00:51:13.764Z,1000.40
2019-05-19T00:52:13.780Z,1000.39
2019-05-19T00:53:13.793Z,1000.39
2019-05-19T00:54:13.844Z,1000.39
2019-05-19T00:55:13.817Z,1000.42
2019-05-19T00:56:13.832Z,1000.42
2019-05-19T00:57:13.849Z,1000.43
2019-05-19T00:58:13.914Z,1000.41
2019-05-19T00:59:13.879Z,1000.40
2019-05-19T01:00:13.903Z,1000.41
2019-05-19T01:01:14.005Z,1000.33
2019-05-19T01:02:14.034Z,1000.36
2019-05-19T01:03:13.942Z,1000.36
2019-05-19T01:04:13.947Z,1000.33
2019-05-19T01:05:13.964Z,1000.30
2019-05-19T01:06:14.008Z,1000.32
2019-05-19T01:07:13.994Z,1000.32
2019-05-19T01:08:14.011Z,1000.32
2019-05-19T01:09:14.026Z,1000.30
2019-05-19T01:10:14.035Z,1000.31
2019-05-19T01:11:14.047Z,1000.31
2019-05-19T01:12:14.073Z,1000.30
2019-05-19T01:13:14.086Z,1000.29
2019-05-19T01:14:15.394Z,1000.32
2019-05-19T01:15:14.107Z,1000.29
2019-05-19T01:16:14.131Z,1000.30
2019-05-19T01:17:14.144Z,1000.30
2019-05-19T01:18:14.161Z,1000.26
2019-05-19T01:19:14.165Z,1000.26
2019-05-19T01:20:14.187Z,1000.26
2019-05-19T01:21:14.196Z,1000.24
2019-05-19T01:22:14.214Z,1000.24
2019-05-19T01:23:14.222Z,1000.24
2019-05-19T01:24:14.244Z,1000.19
2019-05-19T01:25:14.284Z,1000.19
2019-05-19T01:26:14.272Z,1000.19
2019-05-19T01:27:14.278Z,1000.19
2019-05-19T01:29:14.312Z,1000.16
2019-05-19T01:30:14.324Z,1000.18
2019-05-19T01:31:14.335Z,1000.19
2019-05-19T01:32:14.370Z,1000.15
2019-05-19T01:33:14.365Z,1000.16
2019-05-19T01:34:14.381Z,1000.12
2019-05-19T01:35:14.403Z,1000.19
2019-05-19T01:36:14.419Z,1000.17
2019-05-19T01:37:14.427Z,1000.14
2019-05-19T01:38:14.434Z,1000.19
2019-05-19T01:39:14.454Z,1000.19
2019-05-19T01:40:14.470Z,1000.20
2019-05-19T01:41:14.485Z,1000.17
2019-05-19T01:42:14.501Z,1000.15
2019-05-19T01:43:14.526Z,1000.16
2019-05-19T01:44:14.578Z,1000.18
2019-05-19T01:45:14.624Z,1000.15
2019-05-19T01:46:14.552Z,1000.14
2019-05-19T01:47:14.569Z,1000.11
2019-05-19T01:48:14.584Z,1000.15
2019-05-19T01:49:14.594Z,1000.16
2019-05-19T01:50:18.098Z,1000.14
2019-05-19T01:51:14.622Z,1000.13
2019-05-19T01:52:14.637Z,1000.09
2019-05-19T01:53:14.678Z,1000.07
2019-05-19T01:54:16.721Z,1000.11
2019-05-19T01:55:14.727Z,1000.06
2019-05-19T01:56:14.705Z,1000.06
2019-05-19T01:57:14.758Z,1000.04
2019-05-19T01:58:14.772Z,1000.04
2019-05-19T01:59:14.800Z,1000.04
2019-05-19T02:00:14.751Z,1000.05
2019-05-19T02:01:14.964Z,1000.03
2019-05-19T02:02:14.806Z,1000.04
2019-05-19T02:03:14.877Z,1000.05
2019-05-19T02:04:14.844Z,1000.01
2019-05-19T02:05:14.828Z,1000.05
2019-05-19T02:06:14.834Z,1000.08
2019-05-19T02:07:14.868Z,1000.08
2019-05-19T02:08:14.863Z,1000.08
2019-05-19T02:09:14.910Z,1000.05
2019-05-19T02:10:14.917Z,1000.11
2019-05-19T02:11:14.905Z,1000.08
2019-05-19T02:12:14.936Z,1000.10
2019-05-19T02:13:14.940Z,1000.05
2019-05-19T02:14:14.952Z,1000.10
2019-05-19T02:15:14.968Z,1000.04
2019-05-19T02:16:14.989Z,1000.09
2019-05-19T02:17:15.002Z,1000.07
2019-05-19T02:18:15.010Z,1000.11
2019-05-19T02:19:15.022Z,1000.10
2019-05-19T02:20:15.039Z,1000.11
2019-05-19T02:21:15.053Z,1000.09
2019-05-19T02:22:15.069Z,1000.07
2019-05-19T02:23:15.084Z,1000.05
2019-05-19T02:24:15.092Z,1000.06
2019-05-19T02:25:15.115Z,1000.06
2019-05-19T02:26:15.119Z,1000.05
2019-05-19T02:27:15.152Z,1000.10
2019-05-19T02:28:15.358Z,1000.09
2019-05-19T02:29:15.167Z,1000.08
2019-05-19T02:30:15.231Z,1000.10
2019-05-19T02:31:15.435Z,1000.10
2019-05-19T02:32:15.212Z,1000.06
2019-05-19T02:33:15.227Z,1000.08
2019-05-19T02:34:15.246Z,1000.06
2019-05-19T02:35:15.256Z,1000.09
2019-05-19T02:36:15.271Z,1000.06
2019-05-19T02:37:15.345Z,1000.05
2019-05-19T02:38:15.293Z,1000.01
2019-05-19T02:39:15.308Z,1000.09
2019-05-19T02:40:15.319Z,1000.07
2019-05-19T02:41:15.332Z,1000.01
2019-05-19T02:42:15.349Z,1000.01
2019-05-19T02:43:15.364Z,1000.01
2019-05-19T02:44:15.385Z,1000.02
2019-05-19T02:45:15.393Z,1000.04
2019-05-19T02:46:15.404Z,999.99
2019-05-19T02:47:15.466Z,1000.02
2019-05-19T02:48:15.430Z,1000.02
2019-05-19T02:49:15.449Z,999.98
2019-05-19T02:50:15.473Z,999.96
2019-05-19T02:51:15.479Z,999.96
2019-05-19T02:52:15.549Z,999.94
2019-05-19T02:53:15.529Z,999.92
2019-05-19T02:54:15.518Z,999.91
2019-05-19T02:55:15.547Z,999.96
2019-05-19T02:56:15.546Z,999.95
2019-05-19T02:57:15.565Z,999.98
2019-05-19T02:58:15.576Z,1000.02
2019-05-19T02:59:15.783Z,999.98
2019-05-19T03:00:15.613Z,999.98
2019-05-19T03:01:15.619Z,999.99
2019-05-19T03:02:15.730Z,1000.02
2019-05-19T03:03:15.757Z,1000.00
2019-05-19T03:04:15.797Z,1000.02
2019-05-19T03:05:15.968Z,1000.01
2019-05-19T03:06:15.689Z,999.99
2019-05-19T03:07:15.704Z,999.99
2019-05-19T03:08:15.715Z,1000.01
2019-05-19T03:09:15.734Z,999.96
2019-05-19T03:10:15.745Z,999.97
2019-05-19T03:11:15.770Z,999.95
2019-05-19T03:12:15.775Z,999.94
2019-05-19T03:13:15.809Z,999.96
2019-05-19T03:14:15.808Z,999.94
2019-05-19T03:15:15.815Z,999.98
2019-05-19T03:16:15.832Z,999.97
2019-05-19T03:17:15.842Z,999.97
2019-05-19T03:18:15.866Z,999.91
2019-05-19T03:19:15.869Z,999.95
2019-05-19T03:20:15.892Z,999.95
2019-05-19T03:21:15.898Z,999.92
2019-05-19T03:22:15.911Z,999.96
2019-05-19T03:23:15.925Z,999.94
2019-05-19T03:24:15.939Z,999.93
2019-05-19T03:25:15.955Z,999.89
2019-05-19T03:26:15.967Z,999.92
2019-05-19T03:27:15.988Z,999.91
2019-05-19T03:28:16.050Z,999.93
2019-05-19T03:29:16.011Z,999.90
2019-05-19T03:30:16.030Z,999.89
2019-05-19T03:31:16.056Z,999.90
2019-05-19T03:32:16.055Z,999.90
2019-05-19T03:33:16.133Z,999.94
2019-05-19T03:34:16.159Z,999.91
2019-05-19T03:35:16.106Z,999.90
2019-05-19T03:36:16.113Z,999.92
2019-05-19T03:37:16.127Z,999.89
2019-05-19T03:38:16.147Z,999.92
2019-05-19T03:39:16.147Z,999.93
2019-05-19T03:40:16.164Z,999.92
2019-05-19T03:41:16.179Z,999.93
2019-05-19T03:42:16.296Z,999.94
2019-05-19T03:43:16.224Z,999.93
2019-05-19T03:44:16.226Z,999.95
2019-05-19T03:45:16.247Z,999.92
2019-05-19T03:46:16.251Z,999.88
2019-05-19T03:47:16.261Z,999.93
2019-05-19T03:48:16.287Z,999.92
2019-05-19T03:49:16.294Z,999.95
2019-05-19T03:50:16.321Z,999.93
2019-05-19T03:51:30.113Z,999.94
2019-05-19T03:52:16.337Z,999.90
2019-05-19T03:53:16.347Z,999.92
2019-05-19T03:54:16.360Z,999.93
2019-05-19T03:55:16.381Z,999.90
2019-05-19T03:56:16.400Z,999.89
2019-05-19T03:57:16.404Z,999.86
2019-05-19T03:58:16.423Z,999.92
2019-05-19T03:59:16.428Z,999.92
2019-05-19T04:00:16.446Z,999.90
2019-05-19T04:01:16.474Z,999.96
2019-05-19T04:02:16.488Z,999.94
2019-05-19T04:03:16.491Z,999.94
2019-05-19T04:04:16.505Z,999.92
2019-05-19T04:05:16.523Z,999.92
2019-05-19T04:06:16.742Z,999.91
2019-05-19T04:07:16.546Z,999.94
2019-05-19T04:08:16.600Z,999.95
2019-05-19T04:09:17.473Z,999.95
2019-05-19T04:10:16.584Z,999.93
2019-05-19T04:11:16.625Z,999.95
2019-05-19T04:12:16.620Z,999.93
2019-05-19T04:13:16.633Z,999.94
2019-05-19T04:14:16.650Z,999.95
2019-05-19T04:15:16.654Z,999.96
2019-05-19T04:16:16.673Z,999.98
2019-05-19T04:17:16.691Z,999.96
2019-05-19T04:18:16.701Z,999.94
2019-05-19T04:19:16.762Z,1000.00
2019-05-19T04:20:16.727Z,999.98
2019-05-19T04:21:16.742Z,999.97
2019-05-19T04:22:16.754Z,999.98
2019-05-19T04:23:16.780Z,1000.03
2019-05-19T04:24:16.781Z,1000.02
2019-05-19T04:25:16.911Z,1000.02
2019-05-19T04:26:16.807Z,1000.01
2019-05-19T04:27:16.830Z,999.98
2019-05-19T04:28:16.848Z,1000.01
2019-05-19T04:29:16.854Z,1000.03
2019-05-19T04:30:16.878Z,1000.03
2019-05-19T04:31:16.883Z,1000.00
2019-05-19T04:32:16.895Z,1000.02
2019-05-19T04:33:16.914Z,1000.02
2019-05-19T04:34:16.923Z,1000.04
2019-05-19T04:35:16.938Z,1000.05
2019-05-19T04:36:16.954Z,1000.06
2019-05-19T04:37:16.976Z,1000.07
2019-05-19T04:38:16.996Z,1000.05
2019-05-19T04:39:16.994Z,1000.08
2019-05-19T04:40:17.018Z,1000.08
2019-05-19T04:41:17.026Z,1000.08
2019-05-19T04:42:17.049Z,1000.06
2019-05-19T04:43:17.049Z,1000.09
2019-05-19T04:44:17.065Z,1000.08
2019-05-19T04:45:17.079Z,1000.06
2019-05-19T04:46:17.089Z,1000.09
2019-05-19T04:47:17.112Z,1000.08
2019-05-19T04:48:17.119Z,1000.10
2019-05-19T04:49:17.146Z,1000.12
2019-05-19T04:50:17.157Z,1000.10
2019-05-19T04:51:17.162Z,1000.13
2019-05-19T04:52:17.178Z,1000.11
2019-05-19T04:53:17.196Z,1000.12
2019-05-19T04:54:17.203Z,1000.10
2019-05-19T04:55:17.215Z,1000.10
2019-05-19T04:56:19.694Z,1000.09
2019-05-19T04:57:17.250Z,1000.12
2019-05-19T04:58:17.257Z,1000.13
2019-05-19T04:59:17.297Z,1000.15
2019-05-19T05:00:17.297Z,1000.15
2019-05-19T05:01:17.304Z,1000.13
2019-05-19T05:02:17.317Z,1000.15
2019-05-19T05:03:17.328Z,1000.19
2019-05-19T05:04:17.460Z,1000.15
2019-05-19T05:05:17.364Z,1000.18
2019-05-19T05:06:17.380Z,1000.18
2019-05-19T05:07:17.414Z,1000.21
2019-05-19T05:08:28.900Z,1000.20
2019-05-19T05:09:17.421Z,1000.19
2019-05-19T05:10:17.427Z,1000.19
2019-05-19T05:11:17.453Z,1000.20
2019-05-19T05:12:17.462Z,1000.20
2019-05-19T05:13:17.472Z,1000.17
2019-05-19T05:14:17.490Z,1000.16
2019-05-19T05:15:17.505Z,1000.16
2019-05-19T05:16:17.519Z,1000.18
2019-05-19T05:17:17.558Z,1000.20
2019-05-19T05:18:17.556Z,1000.18
2019-05-19T05:19:17.559Z,1000.18
2019-05-19T05:20:17.580Z,1000.19
2019-05-19T05:21:17.595Z,1000.18
2019-05-19T05:22:22.078Z,1000.15
2019-05-19T05:23:17.620Z,1000.13
2019-05-19T05:24:17.633Z,1000.16
2019-05-19T05:25:17.648Z,1000.18
2019-05-19T05:26:17.656Z,1000.15
2019-05-19T05:27:17.670Z,1000.18
2019-05-19T05:28:17.684Z,1000.18
2019-05-19T05:29:17.705Z,1000.17
2019-05-19T05:30:17.728Z,1000.16
2019-05-19T05:31:17.735Z,1000.18
2019-05-19T05:32:17.741Z,1000.18
2019-05-19T05:33:17.756Z,1000.19
2019-05-19T05:34:17.769Z,1000.20
2019-05-19T05:35:17.810Z,1000.22
2019-05-19T05:36:17.797Z,1000.24
2019-05-19T05:37:17.975Z,1000.21
2019-05-19T05:38:17.828Z,1000.26
2019-05-19T05:39:17.857Z,1000.23
2019-05-19T05:40:17.912Z,1000.25
2019-05-19T05:41:17.886Z,1000.24
2019-05-19T05:42:17.887Z,1000.25
2019-05-19T05:43:17.898Z,1000.28
2019-05-19T05:44:17.923Z,1000.27
2019-05-19T05:45:17.927Z,1000.27
2019-05-19T05:46:17.946Z,1000.30
2019-05-19T05:47:17.958Z,1000.27
2019-05-19T05:48:17.985Z,1000.32
2019-05-19T05:49:18.005Z,1000.34
2019-05-19T05:50:17.998Z,1000.30
2019-05-19T05:51:18.013Z,1000.35
2019-05-19T05:52:18.029Z,1000.35
2019-05-19T05:53:18.041Z,1000.32
2019-05-19T05:54:18.065Z,1000.36
2019-05-19T05:55:18.078Z,1000.35
2019-05-19T05:56:18.094Z,1000.31
2019-05-19T05:57:18.116Z,1000.32
2019-05-19T05:58:18.121Z,1000.31
2019-05-19T05:59:18.137Z,1000.30
2019-05-19T06:00:18.160Z,1000.25
2019-05-19T06:01:18.159Z,1000.30
2019-05-19T06:02:18.178Z,1000.29
2019-05-19T06:03:18.183Z,1000.29
2019-05-19T06:04:18.207Z,1000.32
2019-05-19T06:05:18.221Z,1000.29
2019-05-19T06:06:18.227Z,1000.27
2019-05-19T06:07:18.244Z,1000.28
2019-05-19T06:08:18.280Z,1000.27
2019-05-19T06:09:18.374Z,1000.28
2019-05-19T06:10:18.296Z,1000.26
2019-05-19T06:11:18.301Z,1000.29
2019-05-19T06:12:18.318Z,1000.26
2019-05-19T06:13:18.333Z,1000.26
2019-05-19T06:14:18.348Z,1000.30
2019-05-19T06:15:18.366Z,1000.26
2019-05-19T06:16:18.375Z,1000.28
2019-05-19T06:17:18.395Z,1000.31
2019-05-19T06:18:18.409Z,1000.28
2019-05-19T06:19:18.417Z,1000.30
2019-05-19T06:20:18.434Z,1000.29
2019-05-19T06:21:18.465Z,1000.28
2019-05-19T06:22:18.468Z,1000.31
2019-05-19T06:23:18.491Z,1000.29
2019-05-19T06:24:18.496Z,1000.29
2019-05-19T06:25:18.507Z,1000.32
2019-05-19T06:26:18.524Z,1000.27
2019-05-19T06:27:18.536Z,1000.26
2019-05-19T06:28:18.549Z,1000.30
2019-05-19T06:29:18.567Z,1000.30
2019-05-19T06:30:18.580Z,1000.33
2019-05-19T06:31:18.599Z,1000.33
2019-05-19T06:32:18.607Z,1000.35
2019-05-19T06:33:18.626Z,1000.31
2019-05-19T06:34:18.637Z,1000.37
2019-05-19T06:35:18.669Z,1000.34
2019-05-19T06:36:18.667Z,1000.32
2019-05-19T06:37:18.687Z,1000.37
2019-05-19T06:38:18.705Z,1000.36
2019-05-19T06:39:18.713Z,1000.32
2019-05-19T06:40:18.733Z,1000.31
2019-05-19T06:41:18.747Z,1000.35
2019-05-19T06:42:18.762Z,1000.34
2019-05-19T06:43:18.808Z,1000.37
2019-05-19T06:44:18.805Z,1000.34
2019-05-19T06:45:18.805Z,1000.37
2019-05-19T06:46:18.820Z,1000.33
2019-05-19T06:47:18.837Z,1000.31
2019-05-19T06:48:18.849Z,1000.37
2019-05-19T06:49:18.862Z,1000.35
2019-05-19T06:50:18.883Z,1000.35
2019-05-19T06:51:18.906Z,1000.37
2019-05-19T06:52:18.904Z,1000.32
2019-05-19T06:53:18.933Z,1000.33
2019-05-19T06:54:18.939Z,1000.30
2019-05-19T06:55:18.949Z,1000.32
2019-05-19T06:56:18.971Z,1000.34
2019-05-19T06:57:18.986Z,1000.33
2019-05-19T06:58:18.997Z,1000.33
2019-05-19T06:59:19.009Z,1000.36
2019-05-19T07:00:19.064Z,1000.37
2019-05-19T07:01:19.056Z,1000.36
2019-05-19T07:02:19.077Z,1000.39
2019-05-19T07:03:19.077Z,1000.36
2019-05-19T07:04:19.085Z,1000.34
2019-05-19T07:05:19.109Z,1000.32
2019-05-19T07:06:19.133Z,1000.33
2019-05-19T07:07:19.237Z,1000.34
2019-05-19T07:08:19.148Z,1000.30
2019-05-19T07:09:19.227Z,1000.31
2019-05-19T07:10:19.185Z,1000.31
2019-05-19T07:11:19.198Z,1000.28
2019-05-19T07:12:19.200Z,1000.29
2019-05-19T07:13:19.385Z,1000.27
2019-05-19T07:14:19.342Z,1000.28
2019-05-19T07:15:19.278Z,1000.29
2019-05-19T07:16:19.369Z,1000.27
2019-05-19T07:17:19.280Z,1000.28
2019-05-19T07:18:19.288Z,1000.25
2019-05-19T07:19:19.304Z,1000.26
2019-05-19T07:20:19.321Z,1000.24
2019-05-19T07:21:19.337Z,1000.27
2019-05-19T07:22:19.352Z,1000.27
2019-05-19T07:23:27.725Z,1000.25
2019-05-19T07:24:19.385Z,1000.29
2019-05-19T07:25:19.427Z,1000.29
2019-05-19T07:26:19.416Z,1000.28
2019-05-19T07:27:19.425Z,1000.28
2019-05-19T07:28:19.496Z,1000.31
2019-05-19T07:29:19.602Z,1000.29
2019-05-19T07:30:19.479Z,1000.31
2019-05-19T07:31:19.503Z,1000.30
2019-05-19T07:32:19.559Z,1000.30
2019-05-19T07:33:19.536Z,1000.34
2019-05-19T07:34:19.539Z,1000.32
2019-05-19T07:35:19.576Z,1000.29
2019-05-19T07:36:19.650Z,1000.27
2019-05-19T07:37:19.581Z,1000.28
2019-05-19T07:38:19.588Z,1000.30
2019-05-19T07:39:19.606Z,1000.30
2019-05-19T07:40:19.655Z,1000.37
2019-05-19T07:41:19.635Z,1000.35
2019-05-19T07:42:19.854Z,1000.35
2019-05-19T07:43:19.706Z,1000.33
2019-05-19T07:44:19.676Z,1000.34
2019-05-19T07:45:19.707Z,1000.32
2019-05-19T07:46:19.884Z,1000.31
2019-05-19T07:47:19.729Z,1000.32
2019-05-19T07:48:19.855Z,1000.31
2019-05-19T07:49:19.758Z,1000.30
2019-05-19T07:50:19.773Z,1000.31
2019-05-19T07:51:19.790Z,1000.30
2019-05-19T07:52:19.800Z,1000.33
2019-05-19T07:53:19.849Z,1000.33
2019-05-19T07:54:19.840Z,1000.34
2019-05-19T07:55:19.856Z,1000.33
2019-05-19T07:56:19.914Z,1000.37
2019-05-19T07:57:19.885Z,1000.34
2019-05-19T07:58:19.945Z,1000.31
2019-05-19T07:59:19.950Z,1000.30
2019-05-19T08:00:19.927Z,1000.29
2019-05-19T08:01:19.941Z,1000.29
2019-05-19T08:02:20.034Z,1000.27
2019-05-19T08:03:19.958Z,1000.26
2019-05-19T08:04:19.974Z,1000.23
2019-05-19T08:05:19.997Z,1000.23
2019-05-19T08:06:20.004Z,1000.25
2019-05-19T08:07:20.054Z,1000.28
2019-05-19T08:08:20.039Z,1000.26
2019-05-19T08:09:20.163Z,1000.26
2019-05-19T08:10:20.063Z,1000.26
2019-05-19T08:11:20.079Z,1000.27
2019-05-19T08:12:20.101Z,1000.31
2019-05-19T08:13:20.109Z,1000.27
2019-05-19T08:14:20.125Z,1000.28
2019-05-19T08:15:20.157Z,1000.32
2019-05-19T08:16:20.161Z,1000.29
2019-05-19T08:17:20.194Z,1000.28
2019-05-19T08:18:20.223Z,1000.31
2019-05-19T08:19:20.197Z,1000.28
2019-05-19T08:20:20.277Z,1000.27
2019-05-19T08:21:20.336Z,1000.28
2019-05-19T08:22:20.530Z,1000.30
2019-05-19T08:23:20.380Z,1000.29
2019-05-19T08:24:20.291Z,1000.32
2019-05-19T08:25:20.301Z,1000.30
2019-05-19T08:26:20.308Z,1000.27
2019-05-19T08:27:20.331Z,1000.27
2019-05-19T08:28:20.342Z,1000.24
2019-05-19T08:29:20.355Z,1000.20
2019-05-19T08:30:20.382Z,1000.18
2019-05-19T08:31:20.398Z,1000.16
2019-05-19T08:32:20.521Z,1000.18
2019-05-19T08:33:20.426Z,1000.23
2019-05-19T08:34:20.535Z,1000.27
2019-05-19T08:35:20.450Z,1000.24
2019-05-19T08:36:20.468Z,1000.23
2019-05-19T08:37:20.478Z,1000.25
2019-05-19T08:38:20.508Z,1000.21
2019-05-19T08:39:20.513Z,1000.20
2019-05-19T08:40:20.730Z,1000.20
2019-05-19T08:41:20.545Z,1000.21
2019-05-19T08:42:20.601Z,1000.19
2019-05-19T08:43:20.570Z,1000.18
2019-05-19T08:44:20.583Z,1000.15
2019-05-19T08:45:20.601Z,1000.13
2019-05-19T08:46:20.618Z,1000.14
2019-05-19T08:47:20.638Z,1000.19
2019-05-19T08:48:20.774Z,1000.17
2019-05-19T08:49:20.659Z,1000.15
2019-05-19T08:50:20.673Z,1000.13
2019-05-19T08:51:20.690Z,1000.13
2019-05-19T08:52:20.709Z,1000.10
2019-05-19T08:53:20.729Z,1000.13
2019-05-19T08:54:20.735Z,1000.07
2019-05-19T08:55:20.795Z,1000.12
2019-05-19T08:56:20.795Z,1000.08
2019-05-19T08:57:20.792Z,1000.09
2019-05-19T08:58:20.809Z,1000.09
2019-05-19T08:59:20.815Z,1000.11
2019-05-19T09:00:20.831Z,1000.11
2019-05-19T09:01:20.851Z,1000.09
2019-05-19T09:02:20.853Z,1000.09
2019-05-19T09:03:20.879Z,1000.06
2019-05-19T09:04:20.906Z,1000.07
2019-05-19T09:05:20.940Z,1000.09
2019-05-19T09:06:21.431Z,1000.06
2019-05-19T09:07:20.933Z,1000.06
2019-05-19T09:08:20.955Z,1000.05
2019-05-19T09:09:20.967Z,1000.09
2019-05-19T09:10:20.990Z,1000.05
2019-05-19T09:11:20.998Z,1000.06
2019-05-19T09:12:21.014Z,1000.04
2019-05-19T09:13:21.029Z,1000.03
2019-05-19T09:14:21.076Z,1000.05
2019-05-19T09:15:21.056Z,1000.10
2019-05-19T09:16:21.073Z,1000.09
2019-05-19T09:17:21.099Z,1000.04
2019-05-19T09:18:21.125Z,1000.01
2019-05-19T09:19:21.124Z,1000.04
2019-05-19T09:20:21.133Z,1000.03
2019-05-19T09:21:21.147Z,999.97
2019-05-19T09:22:21.164Z,1000.01
2019-05-19T09:23:21.180Z,1000.03
2019-05-19T09:24:30.150Z,1000.01
2019-05-19T09:25:21.223Z,1000.02
2019-05-19T09:26:21.224Z,1000.06
2019-05-19T09:27:21.234Z,1000.05
2019-05-19T09:28:21.257Z,1000.04
2019-05-19T09:29:21.272Z,1000.03
2019-05-19T09:30:21.292Z,999.98
2019-05-19T09:31:21.476Z,999.97
2019-05-19T09:32:21.328Z,999.96
2019-05-19T09:33:21.342Z,999.94
2019-05-19T09:34:21.368Z,999.96
2019-05-19T09:35:21.368Z,999.96
2019-05-19T09:36:21.387Z,999.92
2019-05-19T09:37:21.468Z,999.90
2019-05-19T09:38:21.424Z,999.90
2019-05-19T09:40:21.457Z,999.91
2019-05-19T09:41:21.480Z,999.88
2019-05-19T09:42:21.482Z,999.89
2019-05-19T09:43:21.548Z,999.86
2019-05-19T09:44:21.640Z,999.88
2019-05-19T09:45:21.775Z,999.92
2019-05-19T09:46:21.567Z,999.90
2019-05-19T09:47:21.563Z,999.91
2019-05-19T09:48:21.580Z,999.90
2019-05-19T09:49:21.594Z,999.88
2019-05-19T09:50:21.620Z,999.85
2019-05-19T09:51:21.640Z,999.84
2019-05-19T09:52:21.650Z,999.83
2019-05-19T09:53:21.668Z,999.81
2019-05-19T09:54:21.677Z,999.83
2019-05-19T09:55:21.699Z,999.84
2019-05-19T09:56:21.710Z,999.82
2019-05-19T09:57:21.737Z,999.82
2019-05-19T09:58:21.745Z,999.84
2019-05-19T09:59:21.770Z,999.81
2019-05-19T10:00:21.784Z,999.82
2019-05-19T10:01:21.805Z,999.81
2019-05-19T10:02:21.814Z,999.72
2019-05-19T10:03:21.976Z,999.74
2019-05-19T10:04:21.851Z,999.74
2019-05-19T10:05:22.020Z,999.77
2019-05-19T10:06:21.881Z,999.77
2019-05-19T10:07:21.906Z,999.78
2019-05-19T10:08:21.940Z,999.75
2019-05-19T10:09:21.932Z,999.69
2019-05-19T10:10:21.978Z,999.70
2019-05-19T10:11:21.975Z,999.65
2019-05-19T10:12:21.986Z,999.65
2019-05-19T10:13:22.010Z,999.58
2019-05-19T10:14:22.013Z,999.60
2019-05-19T10:15:22.032Z,999.59
2019-05-19T10:16:22.053Z,999.59
2019-05-19T10:17:22.076Z,999.58
2019-05-19T10:18:22.088Z,999.58
2019-05-19T10:19:22.112Z,999.57
2019-05-19T10:20:22.122Z,999.62
2019-05-19T10:21:22.137Z,999.59
2019-05-19T10:22:22.152Z,999.61
2019-05-19T10:23:22.175Z,999.59
2019-05-19T10:24:22.191Z,999.67
2019-05-19T10:25:23.238Z,999.63
2019-05-19T10:26:22.347Z,999.65
2019-05-19T10:27:22.244Z,999.65
2019-05-19T10:28:22.252Z,999.65
2019-05-19T10:29:22.291Z,999.66
2019-05-19T10:30:22.294Z,999.67
2019-05-19T10:31:22.306Z,999.65
2019-05-19T10:33:19.913Z,999.64
2019-05-19T10:34:19.942Z,999.59
2019-05-19T10:35:19.942Z,999.63
2019-05-19T10:36:19.982Z,999.59
2019-05-19T10:37:19.991Z,999.51
2019-05-19T10:38:19.995Z,999.51
2019-05-19T10:39:20.011Z,999.48
2019-05-19T10:40:20.029Z,999.45
2019-05-19T10:41:20.042Z,999.43
2019-05-19T10:42:20.078Z,999.47
2019-05-19T10:43:20.100Z,999.44
2019-05-19T10:44:20.098Z,999.39
2019-05-19T10:45:20.112Z,999.38
2019-05-19T10:46:20.136Z,999.40
2019-05-19T10:47:20.623Z,999.37
2019-05-19T10:48:20.161Z,999.38
2019-05-19T10:49:20.173Z,999.38
2019-05-19T10:50:20.226Z,999.40
2019-05-19T10:51:20.203Z,999.42
2019-05-19T10:52:20.255Z,999.41
2019-05-19T10:53:20.238Z,999.48
2019-05-19T10:54:20.269Z,999.42
2019-05-19T10:55:20.296Z,999.50
2019-05-19T10:56:20.535Z,999.46
2019-05-19T10:57:20.300Z,999.48
2019-05-19T10:58:20.488Z,999.51
2019-05-19T10:59:20.335Z,999.55
2019-05-19T11:00:20.352Z,999.57
2019-05-19T11:02:20.392Z,999.57
2019-05-19T11:03:20.404Z,999.58
2019-05-19T11:04:20.422Z,999.52
2019-05-19T11:05:20.436Z,999.47
2019-05-19T11:06:20.452Z,999.43
2019-05-19T11:07:20.467Z,999.44
2019-05-19T11:08:20.487Z,999.42
2019-05-19T11:09:20.510Z,999.38
2019-05-19T11:10:20.520Z,999.33
2019-05-19T11:11:20.558Z,999.30
2019-05-19T11:12:20.549Z,999.29
2019-05-19T11:13:20.566Z,999.31
2019-05-19T11:14:20.587Z,999.24
2019-05-19T11:15:20.605Z,999.26
2019-05-19T11:16:20.611Z,999.28
2019-05-19T11:17:20.673Z,999.28
2019-05-19T11:18:20.681Z,999.24
2019-05-19T11:19:20.884Z,999.25
2019-05-19T11:20:20.698Z,999.24
2019-05-19T11:21:20.693Z,999.20
2019-05-19T11:22:20.772Z,999.21
2019-05-19T11:23:21.355Z,999.18
2019-05-19T11:24:20.748Z,999.22
2019-05-19T11:25:32.949Z,999.22
2019-05-19T11:26:20.792Z,999.25
2019-05-19T11:27:20.803Z,999.21
2019-05-19T11:28:20.823Z,999.18
2019-05-19T11:29:20.847Z,999.16
2019-05-19T11:30:20.897Z,999.15
2019-05-19T11:31:21.067Z,999.16
2019-05-19T11:32:20.991Z,999.15
2019-05-19T11:33:20.930Z,999.12
2019-05-19T11:34:20.933Z,999.07
2019-05-19T11:35:20.960Z,999.10
2019-05-19T11:36:20.957Z,999.10
2019-05-19T11:37:20.969Z,999.11
2019-05-19T11:38:21.075Z,999.09
2019-05-19T11:39:21.133Z,999.07
2019-05-19T11:40:21.031Z,999.10
2019-05-19T11:41:21.038Z,999.10
2019-05-19T11:42:21.044Z,999.12
2019-05-19T11:43:21.055Z,999.11
2019-05-19T11:44:21.087Z,999.12
2019-05-19T11:45:21.103Z,999.10
2019-05-19T11:46:21.212Z,999.13
2019-05-19T11:47:21.145Z,999.11
2019-05-19T11:48:21.134Z,999.17
2019-05-19T11:49:21.150Z,999.11
2019-05-19T11:50:21.181Z,999.11
2019-05-19T11:51:21.185Z,999.14
2019-05-19T11:52:21.216Z,999.10
2019-05-19T11:53:21.335Z,999.16
2019-05-19T11:54:21.384Z,999.13
2019-05-19T11:55:21.254Z,999.10
2019-05-19T11:56:21.265Z,999.09
2019-05-19T11:57:21.285Z,999.13
2019-05-19T11:58:21.329Z,999.10
2019-05-19T11:59:21.317Z,999.06
2019-05-19T12:00:21.333Z,999.09
2019-05-19T12:01:21.353Z,999.08
2019-05-19T12:02:21.371Z,999.09
2019-05-19T12:03:21.399Z,999.04
2019-05-19T12:04:21.400Z,999.09
2019-05-19T12:05:21.438Z,999.14
2019-05-19T12:06:21.487Z,999.10
2019-05-19T12:07:21.451Z,999.13
2019-05-19T12:08:21.465Z,999.14
2019-05-19T12:09:21.705Z,999.10
2019-05-19T12:10:21.572Z,999.16
2019-05-19T12:11:21.513Z,999.11
2019-05-19T12:12:21.628Z,999.14
2019-05-19T12:13:21.543Z,999.08
2019-05-19T12:14:21.563Z,999.13
2019-05-19T12:15:21.583Z,999.09
2019-05-19T12:16:21.600Z,999.08
2019-05-19T12:17:21.618Z,999.02
2019-05-19T12:18:21.630Z,999.04